sensor_id;sensor_type;location;lat;lon;timestamp;P1;durP1;ratioP1;P2;durP2;ratioP2
59042;SDS011;44826;51.596;5.624;2023-04-06T00:00:33;10.37;;;5.90;;
59042;SDS011;44826;51.596;5.624;2023-04-06T00:02:58;10.87;;;6.23;;
59042;SDS011;44826;51.596;5.624;2023-04-06T00:05:23;10.43;;;6.03;;
59042;SDS011;44826;51.596;5.624;2023-04-06T00:07:49;11.07;;;6.00;;
59042;SDS011;44826;51.596;5.624;2023-04-06T00:10:15;11.53;;;5.63;;
59042;SDS011;44826;51.596;5.624;2023-04-06T00:12:41;9.60;;;5.70;;
59042;SDS011;44826;51.596;5.624;2023-04-06T00:15:07;10.77;;;5.63;;
59042;SDS011;44826;51.596;5.624;2023-04-06T00:17:34;9.50;;;6.00;;
59042;SDS011;44826;51.596;5.624;2023-04-06T00:20:00;9.97;;;5.93;;
59042;SDS011;44826;51.596;5.624;2023-04-06T00:22:25;9.67;;;5.97;;
59042;SDS011;44826;51.596;5.624;2023-04-06T00:24:50;11.10;;;6.20;;
59042;SDS011;44826;51.596;5.624;2023-04-06T00:27:16;10.97;;;6.20;;
59042;SDS011;44826;51.596;5.624;2023-04-06T00:29:41;11.27;;;6.30;;
59042;SDS011;44826;51.596;5.624;2023-04-06T00:32:06;10.30;;;5.73;;
59042;SDS011;44826;51.596;5.624;2023-04-06T00:34:31;10.83;;;6.47;;
59042;SDS011;44826;51.596;5.624;2023-04-06T00:36:57;11.30;;;6.13;;
59042;SDS011;44826;51.596;5.624;2023-04-06T00:39:22;11.33;;;6.43;;
59042;SDS011;44826;51.596;5.624;2023-04-06T00:41:49;12.23;;;7.00;;
59042;SDS011;44826;51.596;5.624;2023-04-06T00:44:16;11.53;;;6.53;;
59042;SDS011;44826;51.596;5.624;2023-04-06T00:46:41;10.67;;;6.63;;
59042;SDS011;44826;51.596;5.624;2023-04-06T00:49:07;11.97;;;7.23;;
59042;SDS011;44826;51.596;5.624;2023-04-06T00:51:32;10.90;;;6.57;;
59042;SDS011;44826;51.596;5.624;2023-04-06T00:53:57;13.33;;;7.30;;
59042;SDS011;44826;51.596;5.624;2023-04-06T00:56:23;11.17;;;6.30;;
59042;SDS011;44826;51.596;5.624;2023-04-06T00:58:48;12.60;;;6.63;;
59042;SDS011;44826;51.596;5.624;2023-04-06T01:01:14;11.47;;;6.20;;
59042;SDS011;44826;51.596;5.624;2023-04-06T01:03:40;10.30;;;5.57;;
59042;SDS011;44826;51.596;5.624;2023-04-06T01:06:07;10.17;;;5.67;;
59042;SDS011;44826;51.596;5.624;2023-04-06T01:08:32;10.03;;;5.93;;
59042;SDS011;44826;51.596;5.624;2023-04-06T01:10:58;9.77;;;5.47;;
59042;SDS011;44826;51.596;5.624;2023-04-06T01:13:25;11.40;;;5.80;;
59042;SDS011;44826;51.596;5.624;2023-04-06T01:15:51;10.13;;;5.67;;
59042;SDS011;44826;51.596;5.624;2023-04-06T01:18:16;11.83;;;6.30;;
59042;SDS011;44826;51.596;5.624;2023-04-06T01:20:42;11.27;;;6.07;;
59042;SDS011;44826;51.596;5.624;2023-04-06T01:23:07;11.33;;;5.87;;
59042;SDS011;44826;51.596;5.624;2023-04-06T01:25:32;12.00;;;6.17;;
59042;SDS011;44826;51.596;5.624;2023-04-06T01:27:58;12.00;;;6.47;;
59042;SDS011;44826;51.596;5.624;2023-04-06T01:30:23;10.17;;;6.43;;
59042;SDS011;44826;51.596;5.624;2023-04-06T01:32:48;10.00;;;6.10;;
59042;SDS011;44826;51.596;5.624;2023-04-06T01:35:14;13.03;;;6.10;;
59042;SDS011;44826;51.596;5.624;2023-04-06T01:37:39;10.10;;;6.10;;
59042;SDS011;44826;51.596;5.624;2023-04-06T01:40:05;11.23;;;6.37;;
59042;SDS011;44826;51.596;5.624;2023-04-06T01:42:31;12.47;;;6.90;;
59042;SDS011;44826;51.596;5.624;2023-04-06T01:44:56;13.97;;;6.67;;
59042;SDS011;44826;51.596;5.624;2023-04-06T01:47:21;12.77;;;6.77;;
59042;SDS011;44826;51.596;5.624;2023-04-06T01:49:47;13.07;;;6.70;;
59042;SDS011;44826;51.596;5.624;2023-04-06T01:52:12;10.83;;;6.73;;
59042;SDS011;44826;51.596;5.624;2023-04-06T01:54:37;12.57;;;6.33;;
59042;SDS011;44826;51.596;5.624;2023-04-06T01:57:02;11.13;;;6.17;;
59042;SDS011;44826;51.596;5.624;2023-04-06T01:59:28;10.57;;;6.87;;
59042;SDS011;44826;51.596;5.624;2023-04-06T02:01:53;14.47;;;7.07;;
59042;SDS011;44826;51.596;5.624;2023-04-06T02:04:18;12.73;;;6.37;;
59042;SDS011;44826;51.596;5.624;2023-04-06T02:06:44;14.07;;;7.13;;
59042;SDS011;44826;51.596;5.624;2023-04-06T02:09:09;13.87;;;7.03;;
59042;SDS011;44826;51.596;5.624;2023-04-06T02:11:35;12.53;;;6.80;;
59042;SDS011;44826;51.596;5.624;2023-04-06T02:14:00;13.47;;;7.60;;
59042;SDS011;44826;51.596;5.624;2023-04-06T02:16:26;11.93;;;6.47;;
59042;SDS011;44826;51.596;5.624;2023-04-06T02:18:51;12.63;;;7.00;;
59042;SDS011;44826;51.596;5.624;2023-04-06T02:21:16;12.77;;;7.30;;
59042;SDS011;44826;51.596;5.624;2023-04-06T02:23:48;15.30;;;7.43;;
59042;SDS011;44826;51.596;5.624;2023-04-06T02:26:14;12.63;;;6.53;;
59042;SDS011;44826;51.596;5.624;2023-04-06T02:28:40;12.03;;;6.97;;
59042;SDS011;44826;51.596;5.624;2023-04-06T02:31:05;12.63;;;6.70;;
59042;SDS011;44826;51.596;5.624;2023-04-06T02:33:31;14.47;;;7.87;;
59042;SDS011;44826;51.596;5.624;2023-04-06T02:35:56;11.97;;;6.93;;
59042;SDS011;44826;51.596;5.624;2023-04-06T02:38:21;12.93;;;6.47;;
59042;SDS011;44826;51.596;5.624;2023-04-06T02:40:47;14.00;;;7.07;;
59042;SDS011;44826;51.596;5.624;2023-04-06T02:43:12;13.90;;;7.30;;
59042;SDS011;44826;51.596;5.624;2023-04-06T02:45:37;11.57;;;6.67;;
59042;SDS011;44826;51.596;5.624;2023-04-06T02:48:02;14.77;;;7.17;;
59042;SDS011;44826;51.596;5.624;2023-04-06T02:50:28;13.83;;;7.67;;
59042;SDS011;44826;51.596;5.624;2023-04-06T02:52:53;15.20;;;7.83;;
59042;SDS011;44826;51.596;5.624;2023-04-06T02:55:18;11.83;;;7.03;;
59042;SDS011;44826;51.596;5.624;2023-04-06T02:57:44;12.77;;;7.43;;
59042;SDS011;44826;51.596;5.624;2023-04-06T03:00:10;13.77;;;7.80;;
59042;SDS011;44826;51.596;5.624;2023-04-06T03:02:36;14.13;;;7.67;;
59042;SDS011;44826;51.596;5.624;2023-04-06T03:05:01;14.53;;;7.70;;
59042;SDS011;44826;51.596;5.624;2023-04-06T03:07:28;15.40;;;7.90;;
59042;SDS011;44826;51.596;5.624;2023-04-06T03:09:53;15.50;;;8.87;;
59042;SDS011;44826;51.596;5.624;2023-04-06T03:12:18;14.60;;;7.80;;
59042;SDS011;44826;51.596;5.624;2023-04-06T03:14:44;12.70;;;7.83;;
59042;SDS011;44826;51.596;5.624;2023-04-06T03:17:09;15.13;;;8.23;;
59042;SDS011;44826;51.596;5.624;2023-04-06T03:19:35;15.47;;;8.07;;
59042;SDS011;44826;51.596;5.624;2023-04-06T03:22:00;16.43;;;8.57;;
59042;SDS011;44826;51.596;5.624;2023-04-06T03:24:26;15.37;;;8.33;;
59042;SDS011;44826;51.596;5.624;2023-04-06T03:26:51;16.13;;;8.87;;
59042;SDS011;44826;51.596;5.624;2023-04-06T03:29:16;14.07;;;8.60;;
59042;SDS011;44826;51.596;5.624;2023-04-06T03:31:41;16.03;;;8.73;;
59042;SDS011;44826;51.596;5.624;2023-04-06T03:34:07;13.93;;;8.43;;
59042;SDS011;44826;51.596;5.624;2023-04-06T03:36:33;17.13;;;9.23;;
59042;SDS011;44826;51.596;5.624;2023-04-06T03:38:59;15.93;;;8.77;;
59042;SDS011;44826;51.596;5.624;2023-04-06T03:41:24;16.43;;;9.50;;
59042;SDS011;44826;51.596;5.624;2023-04-06T03:43:50;15.13;;;8.83;;
59042;SDS011;44826;51.596;5.624;2023-04-06T03:46:15;15.93;;;8.60;;
59042;SDS011;44826;51.596;5.624;2023-04-06T03:48:40;16.33;;;9.57;;
59042;SDS011;44826;51.596;5.624;2023-04-06T03:51:06;16.00;;;9.27;;
59042;SDS011;44826;51.596;5.624;2023-04-06T03:53:31;16.83;;;9.23;;
59042;SDS011;44826;51.596;5.624;2023-04-06T03:55:56;15.43;;;9.03;;
59042;SDS011;44826;51.596;5.624;2023-04-06T03:58:21;16.00;;;8.83;;
59042;SDS011;44826;51.596;5.624;2023-04-06T04:00:47;16.20;;;9.00;;
59042;SDS011;44826;51.596;5.624;2023-04-06T04:03:12;15.50;;;9.20;;
59042;SDS011;44826;51.596;5.624;2023-04-06T04:05:41;16.27;;;9.03;;
59042;SDS011;44826;51.596;5.624;2023-04-06T04:08:08;15.30;;;8.90;;
59042;SDS011;44826;51.596;5.624;2023-04-06T04:10:33;17.67;;;9.53;;
59042;SDS011;44826;51.596;5.624;2023-04-06T04:12:58;16.13;;;9.17;;
59042;SDS011;44826;51.596;5.624;2023-04-06T04:15:24;18.90;;;10.17;;
59042;SDS011;44826;51.596;5.624;2023-04-06T04:17:49;18.40;;;10.10;;
59042;SDS011;44826;51.596;5.624;2023-04-06T04:20:15;18.87;;;9.97;;
59042;SDS011;44826;51.596;5.624;2023-04-06T04:22:41;17.13;;;9.97;;
59042;SDS011;44826;51.596;5.624;2023-04-06T04:25:07;17.40;;;9.57;;
59042;SDS011;44826;51.596;5.624;2023-04-06T04:27:32;16.57;;;10.10;;
59042;SDS011;44826;51.596;5.624;2023-04-06T04:29:58;18.17;;;9.97;;
59042;SDS011;44826;51.596;5.624;2023-04-06T04:32:23;16.73;;;9.60;;
59042;SDS011;44826;51.596;5.624;2023-04-06T04:34:52;16.63;;;9.83;;
59042;SDS011;44826;51.596;5.624;2023-04-06T04:37:17;16.17;;;9.60;;
59042;SDS011;44826;51.596;5.624;2023-04-06T04:39:42;16.67;;;10.03;;
59042;SDS011;44826;51.596;5.624;2023-04-06T04:42:08;17.10;;;9.70;;
59042;SDS011;44826;51.596;5.624;2023-04-06T04:44:33;17.03;;;10.13;;
59042;SDS011;44826;51.596;5.624;2023-04-06T04:46:58;17.30;;;9.83;;
59042;SDS011;44826;51.596;5.624;2023-04-06T04:49:24;16.83;;;9.67;;
59042;SDS011;44826;51.596;5.624;2023-04-06T04:51:49;17.03;;;9.77;;
59042;SDS011;44826;51.596;5.624;2023-04-06T04:54:17;18.60;;;10.17;;
59042;SDS011;44826;51.596;5.624;2023-04-06T04:56:42;19.20;;;9.97;;
59042;SDS011;44826;51.596;5.624;2023-04-06T04:59:07;16.87;;;9.73;;
59042;SDS011;44826;51.596;5.624;2023-04-06T05:01:33;15.87;;;9.40;;
59042;SDS011;44826;51.596;5.624;2023-04-06T05:03:58;16.23;;;9.97;;
59042;SDS011;44826;51.596;5.624;2023-04-06T05:06:23;16.77;;;10.10;;
59042;SDS011;44826;51.596;5.624;2023-04-06T05:08:48;17.43;;;10.07;;
59042;SDS011;44826;51.596;5.624;2023-04-06T05:11:14;18.17;;;10.90;;
59042;SDS011;44826;51.596;5.624;2023-04-06T05:13:39;20.07;;;11.07;;
59042;SDS011;44826;51.596;5.624;2023-04-06T05:16:04;17.50;;;10.27;;
59042;SDS011;44826;51.596;5.624;2023-04-06T05:18:30;17.83;;;10.53;;
59042;SDS011;44826;51.596;5.624;2023-04-06T05:20:56;18.13;;;9.93;;
59042;SDS011;44826;51.596;5.624;2023-04-06T05:23:21;17.47;;;9.57;;
59042;SDS011;44826;51.596;5.624;2023-04-06T05:25:46;18.40;;;10.60;;
59042;SDS011;44826;51.596;5.624;2023-04-06T05:28:12;17.33;;;10.37;;
59042;SDS011;44826;51.596;5.624;2023-04-06T05:30:39;17.73;;;10.27;;
59042;SDS011;44826;51.596;5.624;2023-04-06T05:33:04;17.40;;;10.07;;
59042;SDS011;44826;51.596;5.624;2023-04-06T05:35:30;18.90;;;9.73;;
59042;SDS011;44826;51.596;5.624;2023-04-06T05:37:55;17.73;;;9.60;;
59042;SDS011;44826;51.596;5.624;2023-04-06T05:40:20;16.60;;;9.80;;
59042;SDS011;44826;51.596;5.624;2023-04-06T05:42:46;17.87;;;10.33;;
59042;SDS011;44826;51.596;5.624;2023-04-06T05:45:11;19.47;;;10.03;;
59042;SDS011;44826;51.596;5.624;2023-04-06T05:47:42;17.67;;;10.27;;
59042;SDS011;44826;51.596;5.624;2023-04-06T05:50:08;16.73;;;9.57;;
59042;SDS011;44826;51.596;5.624;2023-04-06T05:52:33;20.47;;;10.37;;
59042;SDS011;44826;51.596;5.624;2023-04-06T05:54:59;17.53;;;10.27;;
59042;SDS011;44826;51.596;5.624;2023-04-06T05:57:24;19.13;;;10.50;;
59042;SDS011;44826;51.596;5.624;2023-04-06T05:59:49;18.73;;;10.63;;
59042;SDS011;44826;51.596;5.624;2023-04-06T06:02:14;16.97;;;10.73;;
59042;SDS011;44826;51.596;5.624;2023-04-06T06:04:40;18.77;;;10.27;;
59042;SDS011;44826;51.596;5.624;2023-04-06T06:07:05;18.70;;;10.17;;
59042;SDS011;44826;51.596;5.624;2023-04-06T06:09:30;16.60;;;10.03;;
59042;SDS011;44826;51.596;5.624;2023-04-06T06:11:56;17.90;;;9.77;;
59042;SDS011;44826;51.596;5.624;2023-04-06T06:14:21;19.37;;;10.63;;
59042;SDS011;44826;51.596;5.624;2023-04-06T06:16:46;19.63;;;10.40;;
59042;SDS011;44826;51.596;5.624;2023-04-06T06:19:12;18.83;;;9.70;;
59042;SDS011;44826;51.596;5.624;2023-04-06T06:21:37;17.97;;;9.73;;
59042;SDS011;44826;51.596;5.624;2023-04-06T06:24:02;17.27;;;9.67;;
59042;SDS011;44826;51.596;5.624;2023-04-06T06:26:28;17.07;;;10.03;;
59042;SDS011;44826;51.596;5.624;2023-04-06T06:28:53;18.25;;;9.70;;
59042;SDS011;44826;51.596;5.624;2023-04-06T06:31:18;16.70;;;9.53;;
59042;SDS011;44826;51.596;5.624;2023-04-06T06:33:48;18.80;;;10.95;;
59042;SDS011;44826;51.596;5.624;2023-04-06T06:36:16;15.80;;;10.13;;
59042;SDS011;44826;51.596;5.624;2023-04-06T06:38:44;16.38;;;9.82;;
59042;SDS011;44826;51.596;5.624;2023-04-06T06:41:09;18.33;;;10.67;;
59042;SDS011;44826;51.596;5.624;2023-04-06T06:43:35;18.58;;;10.73;;
59042;SDS011;44826;51.596;5.624;2023-04-06T06:46:00;20.97;;;10.37;;
59042;SDS011;44826;51.596;5.624;2023-04-06T06:48:26;18.42;;;10.45;;
59042;SDS011;44826;51.596;5.624;2023-04-06T06:50:51;18.25;;;10.43;;
59042;SDS011;44826;51.596;5.624;2023-04-06T06:53:16;17.60;;;10.15;;
59042;SDS011;44826;51.596;5.624;2023-04-06T06:55:42;17.02;;;10.18;;
59042;SDS011;44826;51.596;5.624;2023-04-06T06:58:09;17.90;;;10.38;;
59042;SDS011;44826;51.596;5.624;2023-04-06T07:00:34;19.55;;;10.50;;
59042;SDS011;44826;51.596;5.624;2023-04-06T07:03:00;19.33;;;10.77;;
59042;SDS011;44826;51.596;5.624;2023-04-06T07:05:25;17.52;;;10.15;;
59042;SDS011;44826;51.596;5.624;2023-04-06T07:07:51;16.92;;;9.93;;
59042;SDS011;44826;51.596;5.624;2023-04-06T07:10:17;18.33;;;10.38;;
59042;SDS011;44826;51.596;5.624;2023-04-06T07:12:42;18.52;;;10.68;;
59042;SDS011;44826;51.596;5.624;2023-04-06T07:15:07;17.88;;;10.65;;
59042;SDS011;44826;51.596;5.624;2023-04-06T07:17:33;17.40;;;10.13;;
59042;SDS011;44826;51.596;5.624;2023-04-06T07:19:58;18.98;;;10.25;;
59042;SDS011;44826;51.596;5.624;2023-04-06T07:22:23;18.48;;;10.40;;
59042;SDS011;44826;51.596;5.624;2023-04-06T07:24:49;18.50;;;10.63;;
59042;SDS011;44826;51.596;5.624;2023-04-06T07:27:14;16.70;;;10.32;;
59042;SDS011;44826;51.596;5.624;2023-04-06T07:29:41;17.90;;;10.18;;
59042;SDS011;44826;51.596;5.624;2023-04-06T07:32:06;17.60;;;9.77;;
59042;SDS011;44826;51.596;5.624;2023-04-06T07:34:33;18.98;;;10.95;;
59042;SDS011;44826;51.596;5.624;2023-04-06T07:36:58;20.85;;;10.38;;
59042;SDS011;44826;51.596;5.624;2023-04-06T07:39:25;17.40;;;9.73;;
59042;SDS011;44826;51.596;5.624;2023-04-06T07:41:51;19.00;;;10.32;;
59042;SDS011;44826;51.596;5.624;2023-04-06T07:44:17;18.90;;;10.23;;
59042;SDS011;44826;51.596;5.624;2023-04-06T07:46:42;18.25;;;10.40;;
59042;SDS011;44826;51.596;5.624;2023-04-06T07:49:07;16.33;;;9.90;;
59042;SDS011;44826;51.596;5.624;2023-04-06T07:51:35;17.42;;;10.35;;
59042;SDS011;44826;51.596;5.624;2023-04-06T07:54:01;16.38;;;10.10;;
59042;SDS011;44826;51.596;5.624;2023-04-06T07:56:26;16.60;;;9.80;;
59042;SDS011;44826;51.596;5.624;2023-04-06T07:58:51;17.88;;;10.30;;
59042;SDS011;44826;51.596;5.624;2023-04-06T08:01:17;17.75;;;9.73;;
59042;SDS011;44826;51.596;5.624;2023-04-06T08:03:42;17.98;;;10.32;;
59042;SDS011;44826;51.596;5.624;2023-04-06T08:06:07;19.25;;;9.93;;
59042;SDS011;44826;51.596;5.624;2023-04-06T08:08:33;17.40;;;9.55;;
59042;SDS011;44826;51.596;5.624;2023-04-06T08:10:58;17.92;;;9.98;;
59042;SDS011;44826;51.596;5.624;2023-04-06T08:13:23;17.63;;;9.90;;
59042;SDS011;44826;51.596;5.624;2023-04-06T08:15:48;17.10;;;9.85;;
59042;SDS011;44826;51.596;5.624;2023-04-06T08:18:14;16.67;;;8.95;;
59042;SDS011;44826;51.596;5.624;2023-04-06T08:20:39;16.25;;;9.35;;
59042;SDS011;44826;51.596;5.624;2023-04-06T08:23:05;16.50;;;9.60;;
59042;SDS011;44826;51.596;5.624;2023-04-06T08:25:31;15.52;;;9.25;;
59042;SDS011;44826;51.596;5.624;2023-04-06T08:27:58;16.58;;;9.35;;
59042;SDS011;44826;51.596;5.624;2023-04-06T08:30:24;18.83;;;10.10;;
59042;SDS011;44826;51.596;5.624;2023-04-06T08:32:49;16.80;;;9.65;;
59042;SDS011;44826;51.596;5.624;2023-04-06T08:35:14;19.00;;;9.80;;
59042;SDS011;44826;51.596;5.624;2023-04-06T08:37:40;16.90;;;9.38;;
59042;SDS011;44826;51.596;5.624;2023-04-06T08:40:06;18.00;;;9.57;;
59042;SDS011;44826;51.596;5.624;2023-04-06T08:42:32;18.25;;;10.32;;
59042;SDS011;44826;51.596;5.624;2023-04-06T08:44:58;16.95;;;9.65;;
59042;SDS011;44826;51.596;5.624;2023-04-06T08:47:24;17.55;;;10.48;;
59042;SDS011;44826;51.596;5.624;2023-04-06T08:49:49;15.55;;;9.25;;
59042;SDS011;44826;51.596;5.624;2023-04-06T08:52:17;18.00;;;9.95;;
59042;SDS011;44826;51.596;5.624;2023-04-06T08:54:43;18.25;;;10.25;;
59042;SDS011;44826;51.596;5.624;2023-04-06T08:57:09;19.85;;;10.48;;
59042;SDS011;44826;51.596;5.624;2023-04-06T08:59:35;17.65;;;9.90;;
59042;SDS011;44826;51.596;5.624;2023-04-06T09:02:02;18.13;;;9.77;;
59042;SDS011;44826;51.596;5.624;2023-04-06T09:04:30;16.85;;;9.65;;
59042;SDS011;44826;51.596;5.624;2023-04-06T09:06:56;17.92;;;10.20;;
59042;SDS011;44826;51.596;5.624;2023-04-06T09:09:22;17.83;;;9.88;;
59042;SDS011;44826;51.596;5.624;2023-04-06T09:11:50;16.55;;;9.30;;
59042;SDS011;44826;51.596;5.624;2023-04-06T09:14:17;18.48;;;9.95;;
59042;SDS011;44826;51.596;5.624;2023-04-06T09:16:43;16.77;;;10.02;;
59042;SDS011;44826;51.596;5.624;2023-04-06T09:19:10;19.83;;;9.98;;
59042;SDS011;44826;51.596;5.624;2023-04-06T09:21:37;18.70;;;10.23;;
59042;SDS011;44826;51.596;5.624;2023-04-06T09:24:03;17.02;;;9.48;;
59042;SDS011;44826;51.596;5.624;2023-04-06T09:26:29;16.95;;;9.75;;
59042;SDS011;44826;51.596;5.624;2023-04-06T09:28:54;16.77;;;9.52;;
59042;SDS011;44826;51.596;5.624;2023-04-06T09:31:32;17.08;;;9.63;;
59042;SDS011;44826;51.596;5.624;2023-04-06T09:33:58;16.40;;;9.18;;
59042;SDS011;44826;51.596;5.624;2023-04-06T09:36:31;17.40;;;9.88;;
59042;SDS011;44826;51.596;5.624;2023-04-06T09:38:59;15.85;;;9.63;;
59042;SDS011;44826;51.596;5.624;2023-04-06T09:41:27;17.67;;;9.57;;
59042;SDS011;44826;51.596;5.624;2023-04-06T09:44:07;18.08;;;9.60;;
59042;SDS011;44826;51.596;5.624;2023-04-06T09:46:40;16.88;;;9.80;;
59042;SDS011;44826;51.596;5.624;2023-04-06T09:49:07;16.25;;;9.73;;
59042;SDS011;44826;51.596;5.624;2023-04-06T09:51:40;17.55;;;9.57;;
59042;SDS011;44826;51.596;5.624;2023-04-06T09:54:09;18.55;;;10.02;;
59042;SDS011;44826;51.596;5.624;2023-04-06T09:56:45;17.45;;;10.13;;
59042;SDS011;44826;51.596;5.624;2023-04-06T10:02:06;15.48;;;8.55;;
59042;SDS011;44826;51.596;5.624;2023-04-06T10:04:50;17.98;;;9.95;;
59042;SDS011;44826;51.596;5.624;2023-04-06T10:07:21;15.35;;;9.20;;
59042;SDS011;44826;51.596;5.624;2023-04-06T10:09:47;17.88;;;9.18;;
59042;SDS011;44826;51.596;5.624;2023-04-06T10:12:13;15.75;;;9.02;;
59042;SDS011;44826;51.596;5.624;2023-04-06T10:14:38;16.75;;;9.52;;
59042;SDS011;44826;51.596;5.624;2023-04-06T10:17:04;14.13;;;8.60;;
59042;SDS011;44826;51.596;5.624;2023-04-06T10:22:45;14.05;;;8.02;;
59042;SDS011;44826;51.596;5.624;2023-04-06T10:25:28;13.82;;;8.48;;
59042;SDS011;44826;51.596;5.624;2023-04-06T10:28:01;14.00;;;7.90;;
59042;SDS011;44826;51.596;5.624;2023-04-06T10:30:29;14.82;;;7.70;;
59042;SDS011;44826;51.596;5.624;2023-04-06T10:32:55;14.82;;;7.78;;
59042;SDS011;44826;51.596;5.624;2023-04-06T10:35:21;15.77;;;8.20;;
59042;SDS011;44826;51.596;5.624;2023-04-06T10:37:47;14.52;;;7.88;;
59042;SDS011;44826;51.596;5.624;2023-04-06T10:40:24;13.05;;;7.93;;
59042;SDS011;44826;51.596;5.624;2023-04-06T10:42:53;13.45;;;7.88;;
59042;SDS011;44826;51.596;5.624;2023-04-06T10:45:26;15.40;;;7.32;;
59042;SDS011;44826;51.596;5.624;2023-04-06T10:47:56;12.30;;;7.55;;
59042;SDS011;44826;51.596;5.624;2023-04-06T10:50:21;12.80;;;6.80;;
59042;SDS011;44826;51.596;5.624;2023-04-06T10:52:58;13.45;;;7.07;;
59042;SDS011;44826;51.596;5.624;2023-04-06T10:55:24;11.57;;;7.07;;
59042;SDS011;44826;51.596;5.624;2023-04-06T10:57:51;10.85;;;6.43;;
59042;SDS011;44826;51.596;5.624;2023-04-06T11:00:17;11.50;;;5.95;;
59042;SDS011;44826;51.596;5.624;2023-04-06T11:02:44;11.98;;;6.10;;
59042;SDS011;44826;51.596;5.624;2023-04-06T11:05:11;9.13;;;5.70;;
59042;SDS011;44826;51.596;5.624;2023-04-06T11:07:37;10.45;;;5.53;;
59042;SDS011;44826;51.596;5.624;2023-04-06T11:10:02;9.93;;;5.45;;
59042;SDS011;44826;51.596;5.624;2023-04-06T11:12:28;8.68;;;4.95;;
59042;SDS011;44826;51.596;5.624;2023-04-06T11:14:57;10.02;;;5.55;;
59042;SDS011;44826;51.596;5.624;2023-04-06T11:17:34;9.43;;;5.45;;
59042;SDS011;44826;51.596;5.624;2023-04-06T11:20:01;10.90;;;5.40;;
59042;SDS011;44826;51.596;5.624;2023-04-06T11:22:27;8.25;;;4.43;;
59042;SDS011;44826;51.596;5.624;2023-04-06T11:24:52;9.50;;;5.15;;
59042;SDS011;44826;51.596;5.624;2023-04-06T11:27:18;6.78;;;4.45;;
59042;SDS011;44826;51.596;5.624;2023-04-06T11:29:45;8.30;;;4.57;;
59042;SDS011;44826;51.596;5.624;2023-04-06T11:32:11;8.35;;;5.00;;
59042;SDS011;44826;51.596;5.624;2023-04-06T11:34:44;6.90;;;4.25;;
59042;SDS011;44826;51.596;5.624;2023-04-06T11:37:12;7.55;;;4.65;;
59042;SDS011;44826;51.596;5.624;2023-04-06T11:39:39;6.90;;;4.03;;
59042;SDS011;44826;51.596;5.624;2023-04-06T11:42:06;10.48;;;3.90;;
59042;SDS011;44826;51.596;5.624;2023-04-06T11:44:35;6.85;;;3.78;;
59042;SDS011;44826;51.596;5.624;2023-04-06T11:47:06;7.00;;;3.50;;
59042;SDS011;44826;51.596;5.624;2023-04-06T11:49:37;7.82;;;3.67;;
59042;SDS011;44826;51.596;5.624;2023-04-06T11:52:13;6.93;;;3.60;;
59042;SDS011;44826;51.596;5.624;2023-04-06T11:54:49;6.25;;;3.83;;
59042;SDS011;44826;51.596;5.624;2023-04-06T11:57:16;6.82;;;3.83;;
59042;SDS011;44826;51.596;5.624;2023-04-06T11:59:43;7.40;;;4.10;;
59042;SDS011;44826;51.596;5.624;2023-04-06T12:02:08;7.47;;;4.10;;
59042;SDS011;44826;51.596;5.624;2023-04-06T12:04:34;8.57;;;4.88;;
59042;SDS011;44826;51.596;5.624;2023-04-06T12:07:00;9.65;;;4.97;;
59042;SDS011;44826;51.596;5.624;2023-04-06T12:09:26;7.68;;;4.28;;
59042;SDS011;44826;51.596;5.624;2023-04-06T12:11:51;7.72;;;4.55;;
59042;SDS011;44826;51.596;5.624;2023-04-06T12:14:16;8.90;;;4.70;;
59042;SDS011;44826;51.596;5.624;2023-04-06T12:16:42;9.98;;;4.95;;
59042;SDS011;44826;51.596;5.624;2023-04-06T12:19:07;9.10;;;5.03;;
59042;SDS011;44826;51.596;5.624;2023-04-06T12:21:33;8.43;;;5.03;;
59042;SDS011;44826;51.596;5.624;2023-04-06T12:24:01;8.45;;;4.90;;
59042;SDS011;44826;51.596;5.624;2023-04-06T12:26:27;7.65;;;4.60;;
59042;SDS011;44826;51.596;5.624;2023-04-06T12:28:52;10.15;;;4.82;;
59042;SDS011;44826;51.596;5.624;2023-04-06T12:31:18;8.05;;;4.55;;
59042;SDS011;44826;51.596;5.624;2023-04-06T12:33:46;8.32;;;5.00;;
59042;SDS011;44826;51.596;5.624;2023-04-06T12:36:12;8.88;;;5.10;;
59042;SDS011;44826;51.596;5.624;2023-04-06T12:38:38;8.00;;;4.85;;
59042;SDS011;44826;51.596;5.624;2023-04-06T12:41:05;10.18;;;4.78;;
59042;SDS011;44826;51.596;5.624;2023-04-06T12:43:31;10.32;;;5.57;;
59042;SDS011;44826;51.596;5.624;2023-04-06T12:45:56;9.60;;;5.57;;
59042;SDS011;44826;51.596;5.624;2023-04-06T12:48:21;9.32;;;5.70;;
59042;SDS011;44826;51.596;5.624;2023-04-06T12:50:53;10.05;;;5.80;;
59042;SDS011;44826;51.596;5.624;2023-04-06T12:53:20;9.75;;;5.75;;
59042;SDS011;44826;51.596;5.624;2023-04-06T12:55:45;8.77;;;5.10;;
59042;SDS011;44826;51.596;5.624;2023-04-06T12:58:11;7.78;;;5.00;;
59042;SDS011;44826;51.596;5.624;2023-04-06T13:00:36;8.63;;;4.90;;
59042;SDS011;44826;51.596;5.624;2023-04-06T13:03:01;8.88;;;5.00;;
59042;SDS011;44826;51.596;5.624;2023-04-06T13:05:27;8.32;;;4.95;;
59042;SDS011;44826;51.596;5.624;2023-04-06T13:07:52;9.48;;;5.20;;
59042;SDS011;44826;51.596;5.624;2023-04-06T13:10:17;9.48;;;5.40;;
59042;SDS011;44826;51.596;5.624;2023-04-06T13:12:42;8.23;;;5.18;;
59042;SDS011;44826;51.596;5.624;2023-04-06T13:15:08;8.40;;;4.60;;
59042;SDS011;44826;51.596;5.624;2023-04-06T13:17:33;8.63;;;5.13;;
59042;SDS011;44826;51.596;5.624;2023-04-06T13:19:59;8.80;;;5.07;;
59042;SDS011;44826;51.596;5.624;2023-04-06T13:22:24;10.00;;;5.43;;
59042;SDS011;44826;51.596;5.624;2023-04-06T13:24:49;8.98;;;5.30;;
59042;SDS011;44826;51.596;5.624;2023-04-06T13:27:15;8.55;;;5.05;;
59042;SDS011;44826;51.596;5.624;2023-04-06T13:29:40;8.27;;;4.93;;
59042;SDS011;44826;51.596;5.624;2023-04-06T13:32:05;10.68;;;5.40;;
59042;SDS011;44826;51.596;5.624;2023-04-06T13:34:31;8.90;;;5.40;;
59042;SDS011;44826;51.596;5.624;2023-04-06T13:36:56;8.68;;;5.45;;
59042;SDS011;44826;51.596;5.624;2023-04-06T13:39:23;8.35;;;5.15;;
59042;SDS011;44826;51.596;5.624;2023-04-06T13:41:48;9.00;;;5.03;;
59042;SDS011;44826;51.596;5.624;2023-04-06T13:44:13;8.45;;;5.45;;
59042;SDS011;44826;51.596;5.624;2023-04-06T13:46:38;9.63;;;5.10;;
59042;SDS011;44826;51.596;5.624;2023-04-06T13:49:04;8.40;;;5.32;;
59042;SDS011;44826;51.596;5.624;2023-04-06T13:51:30;8.93;;;5.47;;
59042;SDS011;44826;51.596;5.624;2023-04-06T13:53:55;9.48;;;5.38;;
59042;SDS011;44826;51.596;5.624;2023-04-06T13:56:21;8.52;;;5.13;;
59042;SDS011;44826;51.596;5.624;2023-04-06T13:58:46;8.73;;;4.72;;
59042;SDS011;44826;51.596;5.624;2023-04-06T14:01:11;10.80;;;5.50;;
59042;SDS011;44826;51.596;5.624;2023-04-06T14:03:36;8.35;;;5.13;;
59042;SDS011;44826;51.596;5.624;2023-04-06T14:06:11;10.38;;;5.70;;
59042;SDS011;44826;51.596;5.624;2023-04-06T14:08:36;9.35;;;5.20;;
59042;SDS011;44826;51.596;5.624;2023-04-06T14:11:02;9.18;;;5.45;;
59042;SDS011;44826;51.596;5.624;2023-04-06T14:13:27;9.27;;;5.30;;
59042;SDS011;44826;51.596;5.624;2023-04-06T14:15:53;9.45;;;5.63;;
59042;SDS011;44826;51.596;5.624;2023-04-06T14:18:20;8.15;;;4.90;;
59042;SDS011;44826;51.596;5.624;2023-04-06T14:20:52;8.73;;;5.25;;
59042;SDS011;44826;51.596;5.624;2023-04-06T14:23:18;8.18;;;4.97;;
59042;SDS011;44826;51.596;5.624;2023-04-06T14:25:43;8.10;;;5.32;;
59042;SDS011;44826;51.596;5.624;2023-04-06T14:28:09;8.13;;;5.03;;
59042;SDS011;44826;51.596;5.624;2023-04-06T14:30:34;7.80;;;5.00;;
59042;SDS011;44826;51.596;5.624;2023-04-06T14:33:00;9.52;;;5.10;;
59042;SDS011;44826;51.596;5.624;2023-04-06T14:35:26;11.38;;;5.88;;